sensor_id;sensor_type;location;lat;lon;timestamp;temperature;humidity
20911;DHT22;10615;42.702;23.314;2023-07-02T00:00:56;19.60;99.90
20911;DHT22;10615;42.702;23.314;2023-07-02T00:01:56;19.60;99.90
20911;DHT22;10615;42.702;23.314;2023-07-02T00:02:58;19.70;99.90
20911;DHT22;10615;42.702;23.314;2023-07-02T00:03:59;19.60;99.90
20911;DHT22;10615;42.702;23.314;2023-07-02T00:05:00;19.60;99.90
20911;DHT22;10615;42.702;23.314;2023-07-02T00:06:00;19.60;99.90
20911;DHT22;10615;42.702;23.314;2023-07-02T00:07:01;19.60;99.90
20911;DHT22;10615;42.702;23.314;2023-07-02T00:08:02;19.60;99.90
20911;DHT22;10615;42.702;23.314;2023-07-02T00:09:03;19.60;99.90
20911;DHT22;10615;42.702;23.314;2023-07-02T00:10:05;19.60;99.90
20911;DHT22;10615;42.702;23.314;2023-07-02T00:11:06;19.60;99.90
20911;DHT22;10615;42.702;23.314;2023-07-02T00:12:07;19.60;99.90
20911;DHT22;10615;42.702;23.314;2023-07-02T00:13:08;19.60;99.90
20911;DHT22;10615;42.702;23.314;2023-07-02T00:14:09;19.60;99.90
20911;DHT22;10615;42.702;23.314;2023-07-02T00:15:10;19.60;99.90
20911;DHT22;10615;42.702;23.314;2023-07-02T00:16:11;19.60;99.90
20911;DHT22;10615;42.702;23.314;2023-07-02T00:17:11;19.70;99.90
20911;DHT22;10615;42.702;23.314;2023-07-02T00:18:15;19.60;99.90
20911;DHT22;10615;42.702;23.314;2023-07-02T00:19:16;19.50;99.90
20911;DHT22;10615;42.702;23.314;2023-07-02T00:20:18;19.50;99.90
20911;DHT22;10615;42.702;23.314;2023-07-02T00:21:20;19.50;99.90
20911;DHT22;10615;42.702;23.314;2023-07-02T00:22:21;19.50;99.90
20911;DHT22;10615;42.702;23.314;2023-07-02T00:23:21;19.40;99.90
20911;DHT22;10615;42.702;23.314;2023-07-02T00:24:22;19.40;99.90
20911;DHT22;10615;42.702;23.314;2023-07-02T00:25:23;19.40;99.90
20911;DHT22;10615;42.702;23.314;2023-07-02T00:26:24;19.40;99.90
20911;DHT22;10615;42.702;23.314;2023-07-02T00:27:25;19.40;99.90
20911;DHT22;10615;42.702;23.314;2023-07-02T00:28:26;19.50;99.90
20911;DHT22;10615;42.702;23.314;2023-07-02T00:29:26;19.40;99.90
20911;DHT22;10615;42.702;23.314;2023-07-02T00:30:27;19.50;99.90
20911;DHT22;10615;42.702;23.314;2023-07-02T00:31:28;19.50;99.90
20911;DHT22;10615;42.702;23.314;2023-07-02T00:32:28;19.50;99.90
20911;DHT22;10615;42.702;23.314;2023-07-02T00:33:31;19.50;99.90
20911;DHT22;10615;42.702;23.314;2023-07-02T00:34:32;19.60;99.90
20911;DHT22;10615;42.702;23.314;2023-07-02T00:35:32;19.60;99.90
20911;DHT22;10615;42.702;23.314;2023-07-02T00:36:33;19.60;99.90
20911;DHT22;10615;42.702;23.314;2023-07-02T00:37:33;19.60;99.90
20911;DHT22;10615;42.702;23.314;2023-07-02T00:38:34;19.60;99.90
20911;DHT22;10615;42.702;23.314;2023-07-02T00:39:35;19.60;99.90
20911;DHT22;10615;42.702;23.314;2023-07-02T00:40:35;19.70;99.90
20911;DHT22;10615;42.702;23.314;2023-07-02T00:41:37;19.70;99.90
20911;DHT22;10615;42.702;23.314;2023-07-02T00:42:38;19.70;99.90
20911;DHT22;10615;42.702;23.314;2023-07-02T00:43:39;19.70;99.90
20911;DHT22;10615;42.702;23.314;2023-07-02T00:44:43;19.70;99.90
20911;DHT22;10615;42.702;23.314;2023-07-02T00:45:45;19.80;99.90
20911;DHT22;10615;42.702;23.314;2023-07-02T00:46:46;19.80;99.90
20911;DHT22;10615;42.702;23.314;2023-07-02T00:47:47;19.80;99.90
20911;DHT22;10615;42.702;23.314;2023-07-02T00:48:49;19.80;99.90
20911;DHT22;10615;42.702;23.314;2023-07-02T00:49:50;19.80;99.90
20911;DHT22;10615;42.702;23.314;2023-07-02T00:50:52;19.80;99.90
20911;DHT22;10615;42.702;23.314;2023-07-02T00:51:52;19.80;99.90
20911;DHT22;10615;42.702;23.314;2023-07-02T00:52:53;19.80;99.90
20911;DHT22;10615;42.702;23.314;2023-07-02T00:53:55;19.80;99.90
20911;DHT22;10615;42.702;23.314;2023-07-02T00:54:56;19.80;99.90
20911;DHT22;10615;42.702;23.314;2023-07-02T00:55:57;19.80;99.90
20911;DHT22;10615;42.702;23.314;2023-07-02T00:56:58;19.80;99.90
20911;DHT22;10615;42.702;23.314;2023-07-02T00:58:03;19.80;99.90
20911;DHT22;10615;42.702;23.314;2023-07-02T00:59:04;19.80;99.90
20911;DHT22;10615;42.702;23.314;2023-07-02T01:00:07;19.80;99.90
20911;DHT22;10615;42.702;23.314;2023-07-02T01:01:08;19.80;99.90
20911;DHT22;10615;42.702;23.314;2023-07-02T01:02:09;19.80;99.90
20911;DHT22;10615;42.702;23.314;2023-07-02T01:03:11;19.90;99.90
20911;DHT22;10615;42.702;23.314;2023-07-02T01:04:12;19.90;99.90
20911;DHT22;10615;42.702;23.314;2023-07-02T01:05:16;19.90;99.90
20911;DHT22;10615;42.702;23.314;2023-07-02T01:06:16;19.80;99.90
20911;DHT22;10615;42.702;23.314;2023-07-02T01:07:19;19.90;99.90
20911;DHT22;10615;42.702;23.314;2023-07-02T01:08:19;19.80;99.90
20911;DHT22;10615;42.702;23.314;2023-07-02T01:09:20;19.90;99.90
20911;DHT22;10615;42.702;23.314;2023-07-02T01:10:21;19.90;99.90
20911;DHT22;10615;42.702;23.314;2023-07-02T01:11:27;19.90;99.90
20911;DHT22;10615;42.702;23.314;2023-07-02T01:12:29;19.90;99.90
20911;DHT22;10615;42.702;23.314;2023-07-02T01:13:30;19.90;99.90
20911;DHT22;10615;42.702;23.314;2023-07-02T01:14:31;19.90;99.90
20911;DHT22;10615;42.702;23.314;2023-07-02T01:15:32;19.90;99.90
20911;DHT22;10615;42.702;23.314;2023-07-02T01:16:34;19.90;99.90
20911;DHT22;10615;42.702;23.314;2023-07-02T01:17:36;19.90;99.90
20911;DHT22;10615;42.702;23.314;2023-07-02T01:18:43;19.90;99.90
20911;DHT22;10615;42.702;23.314;2023-07-02T01:19:49;19.80;99.90
20911;DHT22;10615;42.702;23.314;2023-07-02T01:20:53;19.80;99.90
20911;DHT22;10615;42.702;23.314;2023-07-02T01:21:54;19.70;99.90
20911;DHT22;10615;42.702;23.314;2023-07-02T01:22:55;19.70;99.90
20911;DHT22;10615;42.702;23.314;2023-07-02T01:23:56;19.70;99.90
20911;DHT22;10615;42.702;23.314;2023-07-02T01:24:57;19.70;99.90
20911;DHT22;10615;42.702;23.314;2023-07-02T01:25:58;19.70;99.90
20911;DHT22;10615;42.702;23.314;2023-07-02T01:26:59;19.70;99.90
20911;DHT22;10615;42.702;23.314;2023-07-02T01:28:03;19.70;99.90
20911;DHT22;10615;42.702;23.314;2023-07-02T01:29:18;19.70;99.90
20911;DHT22;10615;42.702;23.314;2023-07-02T01:30:19;19.70;99.90
20911;DHT22;10615;42.702;23.314;2023-07-02T01:31:20;19.70;99.90
20911;DHT22;10615;42.702;23.314;2023-07-02T01:32:25;19.60;99.90
20911;DHT22;10615;42.702;23.314;2023-07-02T01:33:26;19.60;99.90
20911;DHT22;10615;42.702;23.314;2023-07-02T01:34:26;19.50;99.90
20911;DHT22;10615;42.702;23.314;2023-07-02T01:35:27;19.40;99.90
20911;DHT22;10615;42.702;23.314;2023-07-02T01:36:28;19.40;99.90
20911;DHT22;10615;42.702;23.314;2023-07-02T01:37:28;19.30;99.90
20911;DHT22;10615;42.702;23.314;2023-07-02T01:38:29;19.30;99.90
20911;DHT22;10615;42.702;23.314;2023-07-02T01:39:29;19.20;99.90
20911;DHT22;10615;42.702;23.314;2023-07-02T01:40:30;19.30;99.90
20911;DHT22;10615;42.702;23.314;2023-07-02T01:42:44;19.20;99.90
20911;DHT22;10615;42.702;23.314;2023-07-02T01:43:45;19.20;99.90
20911;DHT22;10615;42.702;23.314;2023-07-02T01:44:49;19.20;99.90
20911;DHT22;10615;42.702;23.314;2023-07-02T01:45:52;19.20;99.90
20911;DHT22;10615;42.702;23.314;2023-07-02T01:46:53;19.20;99.90
20911;DHT22;10615;42.702;23.314;2023-07-02T01:47:56;19.10;99.90
20911;DHT22;10615;42.702;23.314;2023-07-02T01:48:57;19.10;99.90
20911;DHT22;10615;42.702;23.314;2023-07-02T01:49:57;19.10;99.90
20911;DHT22;10615;42.702;23.314;2023-07-02T01:50:58;19.00;99.90
20911;DHT22;10615;42.702;23.314;2023-07-02T01:51:58;19.00;99.90
20911;DHT22;10615;42.702;23.314;2023-07-02T01:52:59;18.90;99.90
20911;DHT22;10615;42.702;23.314;2023-07-02T01:54:00;18.80;99.90
20911;DHT22;10615;42.702;23.314;2023-07-02T01:55:02;18.70;99.90
20911;DHT22;10615;42.702;23.314;2023-07-02T01:56:03;18.70;99.90
20911;DHT22;10615;42.702;23.314;2023-07-02T01:57:04;18.70;99.90
20911;DHT22;10615;42.702;23.314;2023-07-02T01:58:05;18.70;99.90
20911;DHT22;10615;42.702;23.314;2023-07-02T01:59:05;18.70;99.90
20911;DHT22;10615;42.702;23.314;2023-07-02T02:00:07;18.70;99.90
20911;DHT22;10615;42.702;23.314;2023-07-02T02:01:09;18.70;99.90
20911;DHT22;10615;42.702;23.314;2023-07-02T02:02:10;18.70;99.90
20911;DHT22;10615;42.702;23.314;2023-07-02T02:03:10;18.70;99.90
20911;DHT22;10615;42.702;23.314;2023-07-02T02:04:11;18.70;99.90
20911;DHT22;10615;42.702;23.314;2023-07-02T02:05:12;18.70;99.90
20911;DHT22;10615;42.702;23.314;2023-07-02T02:06:13;18.70;99.90
20911;DHT22;10615;42.702;23.314;2023-07-02T02:07:13;18.70;99.90
20911;DHT22;10615;42.702;23.314;2023-07-02T02:08:14;18.70;99.90
20911;DHT22;10615;42.702;23.314;2023-07-02T02:09:15;18.70;99.90
20911;DHT22;10615;42.702;23.314;2023-07-02T02:10:16;18.70;99.90
20911;DHT22;10615;42.702;23.314;2023-07-02T02:11:16;18.60;99.90
20911;DHT22;10615;42.702;23.314;2023-07-02T02:12:17;18.60;99.90
20911;DHT22;10615;42.702;23.314;2023-07-02T02:13:18;18.60;99.90
20911;DHT22;10615;42.702;23.314;2023-07-02T02:14:18;18.60;99.90
20911;DHT22;10615;42.702;23.314;2023-07-02T02:15:19;18.60;99.90
20911;DHT22;10615;42.702;23.314;2023-07-02T02:16:20;18.60;99.90
20911;DHT22;10615;42.702;23.314;2023-07-02T02:17:21;18.70;99.90
20911;DHT22;10615;42.702;23.314;2023-07-02T02:18:21;18.70;99.90
20911;DHT22;10615;42.702;23.314;2023-07-02T02:19:22;18.70;99.90
20911;DHT22;10615;42.702;23.314;2023-07-02T02:20:22;18.70;99.90
20911;DHT22;10615;42.702;23.314;2023-07-02T02:21:23;18.70;99.90
20911;DHT22;10615;42.702;23.314;2023-07-02T02:22:24;18.80;99.90
20911;DHT22;10615;42.702;23.314;2023-07-02T02:23:24;18.80;99.90
20911;DHT22;10615;42.702;23.314;2023-07-02T02:24:25;18.80;99.90
20911;DHT22;10615;42.702;23.314;2023-07-02T02:25:26;18.80;99.90
20911;DHT22;10615;42.702;23.314;2023-07-02T02:26:26;18.80;99.90
20911;DHT22;10615;42.702;23.314;2023-07-02T02:27:27;18.80;99.90
20911;DHT22;10615;42.702;23.314;2023-07-02T02:28:28;18.70;99.90
20911;DHT22;10615;42.702;23.314;2023-07-02T02:29:29;18.60;99.90
20911;DHT22;10615;42.702;23.314;2023-07-02T02:30:29;18.60;99.90
20911;DHT22;10615;42.702;23.314;2023-07-02T02:31:30;18.60;99.90
20911;DHT22;10615;42.702;23.314;2023-07-02T02:32:31;18.50;99.90
20911;DHT22;10615;42.702;23.314;2023-07-02T02:33:32;18.50;99.90
20911;DHT22;10615;42.702;23.314;2023-07-02T02:34:33;18.40;99.90
20911;DHT22;10615;42.702;23.314;2023-07-02T02:35:34;18.40;99.90
20911;DHT22;10615;42.702;23.314;2023-07-02T02:36:34;18.30;99.90
20911;DHT22;10615;42.702;23.314;2023-07-02T02:37:37;18.30;99.90
20911;DHT22;10615;42.702;23.314;2023-07-02T02:38:39;18.30;99.90
20911;DHT22;10615;42.702;23.314;2023-07-02T02:39:39;18.30;99.90
20911;DHT22;10615;42.702;23.314;2023-07-02T02:40:40;18.30;99.90
20911;DHT22;10615;42.702;23.314;2023-07-02T02:41:41;18.30;99.90
20911;DHT22;10615;42.702;23.314;2023-07-02T02:42:42;18.20;99.90
20911;DHT22;10615;42.702;23.314;2023-07-02T02:43:43;18.20;99.90
20911;DHT22;10615;42.702;23.314;2023-07-02T02:44:44;18.20;99.90
20911;DHT22;10615;42.702;23.314;2023-07-02T02:45:44;18.20;99.90
20911;DHT22;10615;42.702;23.314;2023-07-02T02:46:45;18.20;99.90
20911;DHT22;10615;42.702;23.314;2023-07-02T02:47:46;18.20;99.90
20911;DHT22;10615;42.702;23.314;2023-07-02T02:48:47;18.20;99.90
20911;DHT22;10615;42.702;23.314;2023-07-02T02:49:47;18.20;99.90
20911;DHT22;10615;42.702;23.314;2023-07-02T02:50:48;18.20;99.90
20911;DHT22;10615;42.702;23.314;2023-07-02T02:51:49;18.20;99.90
20911;DHT22;10615;42.702;23.314;2023-07-02T02:52:49;18.30;99.90
20911;DHT22;10615;42.702;23.314;2023-07-02T02:53:50;18.30;99.90
20911;DHT22;10615;42.702;23.314;2023-07-02T02:54:51;18.30;99.90
20911;DHT22;10615;42.702;23.314;2023-07-02T02:55:54;18.30;99.90
20911;DHT22;10615;42.702;23.314;2023-07-02T02:56:56;18.30;99.90
20911;DHT22;10615;42.702;23.314;2023-07-02T02:57:56;18.30;99.90
20911;DHT22;10615;42.702;23.314;2023-07-02T02:58:57;18.40;99.90
20911;DHT22;10615;42.702;23.314;2023-07-02T02:59:58;18.50;99.90
20911;DHT22;10615;42.702;23.314;2023-07-02T03:00:59;18.50;99.90
20911;DHT22;10615;42.702;23.314;2023-07-02T03:01:59;18.50;99.90
20911;DHT22;10615;42.702;23.314;2023-07-02T03:03:00;18.50;99.90
20911;DHT22;10615;42.702;23.314;2023-07-02T03:04:01;18.60;99.90
20911;DHT22;10615;42.702;23.314;2023-07-02T03:05:02;18.60;99.90
20911;DHT22;10615;42.702;23.314;2023-07-02T03:06:02;18.60;99.90
20911;DHT22;10615;42.702;23.314;2023-07-02T03:07:03;18.70;99.90
20911;DHT22;10615;42.702;23.314;2023-07-02T03:08:05;18.70;99.90
20911;DHT22;10615;42.702;23.314;2023-07-02T03:09:05;18.70;99.90
20911;DHT22;10615;42.702;23.314;2023-07-02T03:10:06;18.80;99.90
20911;DHT22;10615;42.702;23.314;2023-07-02T03:11:07;18.80;99.90
20911;DHT22;10615;42.702;23.314;2023-07-02T03:12:08;18.80;99.90
20911;DHT22;10615;42.702;23.314;2023-07-02T03:13:09;18.80;99.90
20911;DHT22;10615;42.702;23.314;2023-07-02T03:14:10;18.80;99.90
20911;DHT22;10615;42.702;23.314;2023-07-02T03:15:10;18.80;99.90
20911;DHT22;10615;42.702;23.314;2023-07-02T03:16:11;18.80;99.90
20911;DHT22;10615;42.702;23.314;2023-07-02T03:17:13;18.90;99.90
20911;DHT22;10615;42.702;23.314;2023-07-02T03:18:13;18.90;99.90
20911;DHT22;10615;42.702;23.314;2023-07-02T03:19:14;18.90;99.90
20911;DHT22;10615;42.702;23.314;2023-07-02T03:20:16;18.90;99.90
20911;DHT22;10615;42.702;23.314;2023-07-02T03:21:17;18.90;99.90
20911;DHT22;10615;42.702;23.314;2023-07-02T03:22:18;18.80;99.90
20911;DHT22;10615;42.702;23.314;2023-07-02T03:23:18;18.80;99.90
20911;DHT22;10615;42.702;23.314;2023-07-02T03:24:19;18.80;99.90
20911;DHT22;10615;42.702;23.314;2023-07-02T03:25:19;18.90;99.90
20911;DHT22;10615;42.702;23.314;2023-07-02T03:26:20;19.00;99.90
20911;DHT22;10615;42.702;23.314;2023-07-02T03:27:21;19.00;99.90
20911;DHT22;10615;42.702;23.314;2023-07-02T03:28:22;19.10;99.90
20911;DHT22;10615;42.702;23.314;2023-07-02T03:29:23;19.10;99.90
20911;DHT22;10615;42.702;23.314;2023-07-02T03:30:23;19.20;99.90
20911;DHT22;10615;42.702;23.314;2023-07-02T03:31:24;19.20;99.90
20911;DHT22;10615;42.702;23.314;2023-07-02T03:32:25;19.30;99.90
20911;DHT22;10615;42.702;23.314;2023-07-02T03:33:25;19.40;99.90
20911;DHT22;10615;42.702;23.314;2023-07-02T03:34:26;19.40;99.90
20911;DHT22;10615;42.702;23.314;2023-07-02T03:35:27;19.40;99.90
20911;DHT22;10615;42.702;23.314;2023-07-02T03:36:27;19.50;99.90
20911;DHT22;10615;42.702;23.314;2023-07-02T03:37:28;19.50;99.90
20911;DHT22;10615;42.702;23.314;2023-07-02T03:38:29;19.60;99.90
20911;DHT22;10615;42.702;23.314;2023-07-02T03:39:29;19.70;99.90
20911;DHT22;10615;42.702;23.314;2023-07-02T03:40:30;19.70;99.90
20911;DHT22;10615;42.702;23.314;2023-07-02T03:41:31;19.80;99.90
20911;DHT22;10615;42.702;23.314;2023-07-02T03:42:32;19.80;99.90
20911;DHT22;10615;42.702;23.314;2023-07-02T03:43:34;19.80;99.90
20911;DHT22;10615;42.702;23.314;2023-07-02T03:44:34;19.90;99.90
20911;DHT22;10615;42.702;23.314;2023-07-02T03:45:35;19.90;99.90
20911;DHT22;10615;42.702;23.314;2023-07-02T03:46:36;20.00;99.90
20911;DHT22;10615;42.702;23.314;2023-07-02T03:47:36;20.00;99.90
20911;DHT22;10615;42.702;23.314;2023-07-02T03:48:37;20.00;99.90
20911;DHT22;10615;42.702;23.314;2023-07-02T03:49:38;20.00;99.90
20911;DHT22;10615;42.702;23.314;2023-07-02T03:50:38;20.10;99.90
20911;DHT22;10615;42.702;23.314;2023-07-02T03:51:39;20.10;99.90
20911;DHT22;10615;42.702;23.314;2023-07-02T03:52:39;20.10;99.90
20911;DHT22;10615;42.702;23.314;2023-07-02T03:53:41;20.10;99.90
20911;DHT22;10615;42.702;23.314;2023-07-02T03:54:41;20.20;99.90
20911;DHT22;10615;42.702;23.314;2023-07-02T03:55:42;20.30;99.90
20911;DHT22;10615;42.702;23.314;2023-07-02T03:56:43;20.30;99.90
20911;DHT22;10615;42.702;23.314;2023-07-02T03:57:43;20.40;99.90
20911;DHT22;10615;42.702;23.314;2023-07-02T03:58:44;20.40;99.90
20911;DHT22;10615;42.702;23.314;2023-07-02T03:59:45;20.50;99.90
20911;DHT22;10615;42.702;23.314;2023-07-02T04:00:46;20.60;99.80
20911;DHT22;10615;42.702;23.314;2023-07-02T04:01:49;20.70;99.50
20911;DHT22;10615;42.702;23.314;2023-07-02T04:02:51;20.70;99.10
20911;DHT22;10615;42.702;23.314;2023-07-02T04:03:53;20.70;98.70
20911;DHT22;10615;42.702;23.314;2023-07-02T04:04:54;20.70;98.30
20911;DHT22;10615;42.702;23.314;2023-07-02T04:05:54;20.70;98.10
20911;DHT22;10615;42.702;23.314;2023-07-02T04:06:55;20.70;97.90
20911;DHT22;10615;42.702;23.314;2023-07-02T04:07:56;20.70;97.80
20911;DHT22;10615;42.702;23.314;2023-07-02T04:08:56;20.70;97.70
20911;DHT22;10615;42.702;23.314;2023-07-02T04:09:57;20.60;97.60
20911;DHT22;10615;42.702;23.314;2023-07-02T04:10:58;20.60;97.60
20911;DHT22;10615;42.702;23.314;2023-07-02T04:12:00;20.60;97.60
20911;DHT22;10615;42.702;23.314;2023-07-02T04:13:01;20.50;97.50
20911;DHT22;10615;42.702;23.314;2023-07-02T04:14:02;20.40;97.50
20911;DHT22;10615;42.702;23.314;2023-07-02T04:15:03;20.40;97.70
20911;DHT22;10615;42.702;23.314;2023-07-02T04:16:05;20.40;97.90
20911;DHT22;10615;42.702;23.314;2023-07-02T04:17:06;20.40;98.10
20911;DHT22;10615;42.702;23.314;2023-07-02T04:18:06;20.40;98.10
20911;DHT22;10615;42.702;23.314;2023-07-02T04:19:07;20.30;98.20
20911;DHT22;10615;42.702;23.314;2023-07-02T04:20:08;20.30;98.40
20911;DHT22;10615;42.702;23.314;2023-07-02T04:21:10;20.30;98.60
20911;DHT22;10615;42.702;23.314;2023-07-02T04:22:11;20.30;98.60
20911;DHT22;10615;42.702;23.314;2023-07-02T04:23:11;20.30;98.60
20911;DHT22;10615;42.702;23.314;2023-07-02T04:24:12;20.30;98.70
20911;DHT22;10615;42.702;23.314;2023-07-02T04:25:14;20.30;98.70
20911;DHT22;10615;42.702;23.314;2023-07-02T04:26:17;20.30;98.80
20911;DHT22;10615;42.702;23.314;2023-07-02T04:27:18;20.20;98.90
20911;DHT22;10615;42.702;23.314;2023-07-02T04:28:19;20.20;99.00
20911;DHT22;10615;42.702;23.314;2023-07-02T04:29:20;20.20;99.20
20911;DHT22;10615;42.702;23.314;2023-07-02T04:30:20;20.20;99.20
20911;DHT22;10615;42.702;23.314;2023-07-02T04:31:21;20.20;99.40
20911;DHT22;10615;42.702;23.314;2023-07-02T04:32:22;20.10;99.60
20911;DHT22;10615;42.702;23.314;2023-07-02T04:33:23;20.10;99.70
20911;DHT22;10615;42.702;23.314;2023-07-02T04:34:23;20.00;99.90
20911;DHT22;10615;42.702;23.314;2023-07-02T04:35:24;19.90;99.90
20911;DHT22;10615;42.702;23.314;2023-07-02T04:36:25;19.90;99.90
20911;DHT22;10615;42.702;23.314;2023-07-02T04:37:25;19.90;99.90
20911;DHT22;10615;42.702;23.314;2023-07-02T04:38:28;19.90;99.90
20911;DHT22;10615;42.702;23.314;2023-07-02T04:39:29;19.80;99.90
20911;DHT22;10615;42.702;23.314;2023-07-02T04:40:30;19.80;99.90
20911;DHT22;10615;42.702;23.314;2023-07-02T04:41:30;19.80;99.90
20911;DHT22;10615;42.702;23.314;2023-07-02T04:42:32;19.80;99.90
20911;DHT22;10615;42.702;23.314;2023-07-02T04:43:37;19.80;99.90
20911;DHT22;10615;42.702;23.314;2023-07-02T04:44:39;19.90;99.90
20911;DHT22;10615;42.702;23.314;2023-07-02T04:45:39;19.90;99.90
20911;DHT22;10615;42.702;23.314;2023-07-02T04:46:40;19.90;99.90
20911;DHT22;10615;42.702;23.314;2023-07-02T04:47:44;20.00;99.90
20911;DHT22;10615;42.702;23.314;2023-07-02T04:48:45;20.00;99.90
20911;DHT22;10615;42.702;23.314;2023-07-02T04:49:46;20.00;99.90
20911;DHT22;10615;42.702;23.314;2023-07-02T04:50:46;20.00;99.90
20911;DHT22;10615;42.702;23.314;2023-07-02T04:51:47;20.00;99.90
20911;DHT22;10615;42.702;23.314;2023-07-02T04:52:48;20.00;99.90
20911;DHT22;10615;42.702;23.314;2023-07-02T04:53:48;20.00;99.90
20911;DHT22;10615;42.702;23.314;2023-07-02T04:54:49;20.10;99.90
20911;DHT22;10615;42.702;23.314;2023-07-02T04:55:50;20.10;99.90
20911;DHT22;10615;42.702;23.314;2023-07-02T04:56:50;20.10;99.90
20911;DHT22;10615;42.702;23.314;2023-07-02T04:57:51;20.10;99.90
20911;DHT22;10615;42.702;23.314;2023-07-02T04:58:52;20.10;99.90
20911;DHT22;10615;42.702;23.314;2023-07-02T04:59:53;20.10;99.90
20911;DHT22;10615;42.702;23.314;2023-07-02T05:00:55;20.10;99.90
20911;DHT22;10615;42.702;23.314;2023-07-02T05:01:55;20.20;99.90
20911;DHT22;10615;42.702;23.314;2023-07-02T05:02:56;20.20;99.90
20911;DHT22;10615;42.702;23.314;2023-07-02T05:03:57;20.30;99.90
20911;DHT22;10615;42.702;23.314;2023-07-02T05:04:58;20.30;99.90
20911;DHT22;10615;42.702;23.314;2023-07-02T05:05:58;20.40;99.90
20911;DHT22;10615;42.702;23.314;2023-07-02T05:07:02;20.40;99.90
20911;DHT22;10615;42.702;23.314;2023-07-02T05:08:03;20.40;99.90
20911;DHT22;10615;42.702;23.314;2023-07-02T05:09:05;20.50;99.90
20911;DHT22;10615;42.702;23.314;2023-07-02T05:10:05;20.50;99.90
20911;DHT22;10615;42.702;23.314;2023-07-02T05:11:06;20.60;99.90
20911;DHT22;10615;42.702;23.314;2023-07-02T05:12:07;20.60;99.90
20911;DHT22;10615;42.702;23.314;2023-07-02T05:13:08;20.60;99.90
20911;DHT22;10615;42.702;23.314;2023-07-02T05:14:08;20.70;99.90
20911;DHT22;10615;42.702;23.314;2023-07-02T05:15:09;20.70;99.90
20911;DHT22;10615;42.702;23.314;2023-07-02T05:16:12;20.70;99.90
20911;DHT22;10615;42.702;23.314;2023-07-02T05:17:13;20.70;99.90
20911;DHT22;10615;42.702;23.314;2023-07-02T05:18:14;20.70;99.90
20911;DHT22;10615;42.702;23.314;2023-07-02T05:19:15;20.80;99.90
20911;DHT22;10615;42.702;23.314;2023-07-02T05:20:16;20.70;99.90
20911;DHT22;10615;42.702;23.314;2023-07-02T05:21:20;20.70;99.90
20911;DHT22;10615;42.702;23.314;2023-07-02T05:22:21;20.70;99.80
20911;DHT22;10615;42.702;23.314;2023-07-02T05:23:21;20.60;99.60
20911;DHT22;10615;42.702;23.314;2023-07-02T05:24:22;20.50;99.40
20911;DHT22;10615;42.702;23.314;2023-07-02T05:25:23;20.60;99.50
20911;DHT22;10615;42.702;23.314;2023-07-02T05:26:23;20.50;99.40
20911;DHT22;10615;42.702;23.314;2023-07-02T05:27:24;20.50;99.30
20911;DHT22;10615;42.702;23.314;2023-07-02T05:28:25;20.50;99.30
20911;DHT22;10615;42.702;23.314;2023-07-02T05:29:25;20.50;99.40
20911;DHT22;10615;42.702;23.314;2023-07-02T05:30:26;20.50;99.40
20911;DHT22;10615;42.702;23.314;2023-07-02T05:31:27;20.50;99.30
20911;DHT22;10615;42.702;23.314;2023-07-02T05:32:27;20.40;99.20
20911;DHT22;10615;42.702;23.314;2023-07-02T05:33:28;20.50;99.20
20911;DHT22;10615;42.702;23.314;2023-07-02T05:34:29;20.50;99.20
20911;DHT22;10615;42.702;23.314;2023-07-02T05:35:30;20.50;99.10
20911;DHT22;10615;42.702;23.314;2023-07-02T05:36:30;20.50;99.00
20911;DHT22;10615;42.702;23.314;2023-07-02T05:37:31;20.50;99.00
20911;DHT22;10615;42.702;23.314;2023-07-02T05:38:32;20.50;98.90
20911;DHT22;10615;42.702;23.314;2023-07-02T05:39:36;20.60;99.00
20911;DHT22;10615;42.702;23.314;2023-07-02T05:40:36;20.60;99.00
20911;DHT22;10615;42.702;23.314;2023-07-02T05:41:37;20.70;99.00
20911;DHT22;10615;42.702;23.314;2023-07-02T05:42:38;20.70;98.90
20911;DHT22;10615;42.702;23.314;2023-07-02T05:43:39;20.70;98.90
20911;DHT22;10615;42.702;23.314;2023-07-02T05:44:40;20.80;98.90
20911;DHT22;10615;42.702;23.314;2023-07-02T05:45:40;20.90;98.70
20911;DHT22;10615;42.702;23.314;2023-07-02T05:46:41;21.00;98.50
20911;DHT22;10615;42.702;23.314;2023-07-02T05:47:41;21.00;98.30
20911;DHT22;10615;42.702;23.314;2023-07-02T05:48:42;21.20;98.20
20911;DHT22;10615;42.702;23.314;2023-07-02T05:49:43;21.30;98.00
20911;DHT22;10615;42.702;23.314;2023-07-02T05:50:44;21.40;97.70
20911;DHT22;10615;42.702;23.314;2023-07-02T05:51:44;21.40;97.40
20911;DHT22;10615;42.702;23.314;2023-07-02T05:52:45;21.50;97.20
20911;DHT22;10615;42.702;23.314;2023-07-02T05:53:46;21.60;96.90
20911;DHT22;10615;42.702;23.314;2023-07-02T05:54:46;21.60;96.50
20911;DHT22;10615;42.702;23.314;2023-07-02T05:55:47;21.70;96.20
20911;DHT22;10615;42.702;23.314;2023-07-02T05:56:48;21.70;96.00
20911;DHT22;10615;42.702;23.314;2023-07-02T05:57:49;21.80;95.80
20911;DHT22;10615;42.702;23.314;2023-07-02T05:58:50;21.80;95.60
20911;DHT22;10615;42.702;23.314;2023-07-02T05:59:50;21.90;95.30
20911;DHT22;10615;42.702;23.314;2023-07-02T06:00:51;22.00;95.00
20911;DHT22;10615;42.702;23.314;2023-07-02T06:01:52;22.10;94.80
20911;DHT22;10615;42.702;23.314;2023-07-02T06:02:52;22.10;94.50
20911;DHT22;10615;42.702;23.314;2023-07-02T06:03:53;22.20;94.60
20911;DHT22;10615;42.702;23.314;2023-07-02T06:04:54;22.30;94.00
20911;DHT22;10615;42.702;23.314;2023-07-02T06:05:55;22.40;93.70
20911;DHT22;10615;42.702;23.314;2023-07-02T06:06:55;22.60;93.60
20911;DHT22;10615;42.702;23.314;2023-07-02T06:07:56;23.00;93.40
20911;DHT22;10615;42.702;23.314;2023-07-02T06:08:57;23.80;93.00
20911;DHT22;10615;42.702;23.314;2023-07-02T06:09:58;24.30;91.60
20911;DHT22;10615;42.702;23.314;2023-07-02T06:10:58;24.70;90.30
20911;DHT22;10615;42.702;23.314;2023-07-02T06:11:59;24.90;87.80
20911;DHT22;10615;42.702;23.314;2023-07-02T06:13:00;25.10;85.30
20911;DHT22;10615;42.702;23.314;2023-07-02T06:14:00;25.20;83.40
20911;DHT22;10615;42.702;23.314;2023-07-02T06:15:02;25.20;81.90
20911;DHT22;10615;42.702;23.314;2023-07-02T06:16:03;25.20;81.00
20911;DHT22;10615;42.702;23.314;2023-07-02T06:17:04;25.20;80.10
20911;DHT22;10615;42.702;23.314;2023-07-02T06:18:06;25.10;79.70
20911;DHT22;10615;42.702;23.314;2023-07-02T06:19:07;25.00;79.40
20911;DHT22;10615;42.702;23.314;2023-07-02T06:20:08;24.90;79.20
20911;DHT22;10615;42.702;23.314;2023-07-02T06:21:09;24.80;79.10